sensor_id;sensor_type;location;lat;lon;timestamp;temperature;humidity
21149;DHT22;10732;51.472;6.466;2023-09-08T00:00:57;18.00;99.90
21149;DHT22;10732;51.472;6.466;2023-09-08T00:03:23;18.00;99.90
21149;DHT22;10732;51.472;6.466;2023-09-08T00:05:48;17.90;99.90
21149;DHT22;10732;51.472;6.466;2023-09-08T00:08:14;17.90;99.90
21149;DHT22;10732;51.472;6.466;2023-09-08T00:10:39;17.90;99.90
21149;DHT22;10732;51.472;6.466;2023-09-08T00:13:05;17.90;99.90
21149;DHT22;10732;51.472;6.466;2023-09-08T00:15:33;17.80;99.90
21149;DHT22;10732;51.472;6.466;2023-09-08T00:17:59;17.80;99.90
21149;DHT22;10732;51.472;6.466;2023-09-08T00:20:24;17.80;99.90
21149;DHT22;10732;51.472;6.466;2023-09-08T00:22:50;17.80;99.90
21149;DHT22;10732;51.472;6.466;2023-09-08T00:25:15;17.70;99.90
21149;DHT22;10732;51.472;6.466;2023-09-08T00:27:41;17.70;99.90
21149;DHT22;10732;51.472;6.466;2023-09-08T00:30:07;17.70;99.90
21149;DHT22;10732;51.472;6.466;2023-09-08T00:32:33;17.60;99.90
21149;DHT22;10732;51.472;6.466;2023-09-08T00:34:58;17.60;99.90
21149;DHT22;10732;51.472;6.466;2023-09-08T00:37:24;17.60;99.90
21149;DHT22;10732;51.472;6.466;2023-09-08T00:39:49;17.60;99.90
21149;DHT22;10732;51.472;6.466;2023-09-08T00:42:15;17.50;99.90
21149;DHT22;10732;51.472;6.466;2023-09-08T00:44:40;17.50;99.90
21149;DHT22;10732;51.472;6.466;2023-09-08T00:47:06;17.50;99.90
21149;DHT22;10732;51.472;6.466;2023-09-08T00:49:32;17.50;99.90
21149;DHT22;10732;51.472;6.466;2023-09-08T00:51:57;17.40;99.90
21149;DHT22;10732;51.472;6.466;2023-09-08T00:54:23;17.40;99.90
21149;DHT22;10732;51.472;6.466;2023-09-08T00:56:49;17.40;99.90
21149;DHT22;10732;51.472;6.466;2023-09-08T00:59:19;17.30;99.90
21149;DHT22;10732;51.472;6.466;2023-09-08T01:01:44;17.30;99.90
21149;DHT22;10732;51.472;6.466;2023-09-08T01:04:10;17.20;99.90
21149;DHT22;10732;51.472;6.466;2023-09-08T01:06:35;17.20;99.90
21149;DHT22;10732;51.472;6.466;2023-09-08T01:09:02;17.20;99.90
21149;DHT22;10732;51.472;6.466;2023-09-08T01:11:29;17.10;99.90
21149;DHT22;10732;51.472;6.466;2023-09-08T01:13:55;17.10;99.90
21149;DHT22;10732;51.472;6.466;2023-09-08T01:16:21;17.10;99.90
21149;DHT22;10732;51.472;6.466;2023-09-08T01:18:47;17.10;99.90
21149;DHT22;10732;51.472;6.466;2023-09-08T01:21:48;17.00;99.90
21149;DHT22;10732;51.472;6.466;2023-09-08T01:24:37;17.00;99.90
21149;DHT22;10732;51.472;6.466;2023-09-08T01:27:04;17.00;99.90
21149;DHT22;10732;51.472;6.466;2023-09-08T01:29:31;16.90;99.90
21149;DHT22;10732;51.472;6.466;2023-09-08T01:31:57;16.90;99.90
21149;DHT22;10732;51.472;6.466;2023-09-08T01:34:23;16.90;99.90
21149;DHT22;10732;51.472;6.466;2023-09-08T01:36:49;16.90;99.90
21149;DHT22;10732;51.472;6.466;2023-09-08T01:39:14;16.90;99.90
21149;DHT22;10732;51.472;6.466;2023-09-08T01:41:40;16.90;99.90
21149;DHT22;10732;51.472;6.466;2023-09-08T01:44:06;16.80;99.90
21149;DHT22;10732;51.472;6.466;2023-09-08T01:46:35;16.80;99.90
21149;DHT22;10732;51.472;6.466;2023-09-08T01:49:01;16.70;99.90
21149;DHT22;10732;51.472;6.466;2023-09-08T01:51:26;16.70;99.90
21149;DHT22;10732;51.472;6.466;2023-09-08T01:53:52;16.60;99.90
21149;DHT22;10732;51.472;6.466;2023-09-08T01:56:17;16.60;99.90
21149;DHT22;10732;51.472;6.466;2023-09-08T01:58:43;16.60;99.90
21149;DHT22;10732;51.472;6.466;2023-09-08T02:01:08;16.60;99.90
21149;DHT22;10732;51.472;6.466;2023-09-08T02:03:34;16.60;99.90
21149;DHT22;10732;51.472;6.466;2023-09-08T02:06:00;16.60;99.90
21149;DHT22;10732;51.472;6.466;2023-09-08T02:08:25;16.50;99.90
21149;DHT22;10732;51.472;6.466;2023-09-08T02:10:51;16.50;99.90
21149;DHT22;10732;51.472;6.466;2023-09-08T02:13:16;16.50;99.90
21149;DHT22;10732;51.472;6.466;2023-09-08T02:15:42;16.40;99.90
21149;DHT22;10732;51.472;6.466;2023-09-08T02:18:08;16.40;99.90
21149;DHT22;10732;51.472;6.466;2023-09-08T02:20:34;16.40;99.90
21149;DHT22;10732;51.472;6.466;2023-09-08T02:23:04;16.30;99.90
21149;DHT22;10732;51.472;6.466;2023-09-08T02:25:30;16.30;99.90
21149;DHT22;10732;51.472;6.466;2023-09-08T02:27:56;16.30;99.90
21149;DHT22;10732;51.472;6.466;2023-09-08T02:30:21;16.30;99.90
21149;DHT22;10732;51.472;6.466;2023-09-08T02:32:47;16.20;99.90
21149;DHT22;10732;51.472;6.466;2023-09-08T02:35:12;16.20;99.90
21149;DHT22;10732;51.472;6.466;2023-09-08T02:37:38;16.20;99.90
21149;DHT22;10732;51.472;6.466;2023-09-08T02:40:05;16.20;99.90
21149;DHT22;10732;51.472;6.466;2023-09-08T02:42:31;16.20;99.90
21149;DHT22;10732;51.472;6.466;2023-09-08T02:44:56;16.10;99.90
21149;DHT22;10732;51.472;6.466;2023-09-08T02:47:22;16.10;99.90
21149;DHT22;10732;51.472;6.466;2023-09-08T02:49:47;16.00;99.90
21149;DHT22;10732;51.472;6.466;2023-09-08T02:52:13;16.00;99.90
21149;DHT22;10732;51.472;6.466;2023-09-08T02:54:38;16.00;99.90
21149;DHT22;10732;51.472;6.466;2023-09-08T02:57:05;16.00;99.90
21149;DHT22;10732;51.472;6.466;2023-09-08T02:59:30;15.90;99.90
21149;DHT22;10732;51.472;6.466;2023-09-08T03:01:56;15.90;99.90
21149;DHT22;10732;51.472;6.466;2023-09-08T03:04:21;15.90;99.90
21149;DHT22;10732;51.472;6.466;2023-09-08T03:06:47;15.90;99.90
21149;DHT22;10732;51.472;6.466;2023-09-08T03:09:12;15.80;99.90
21149;DHT22;10732;51.472;6.466;2023-09-08T03:11:38;15.90;99.90
21149;DHT22;10732;51.472;6.466;2023-09-08T03:14:03;15.80;99.90
21149;DHT22;10732;51.472;6.466;2023-09-08T03:16:30;15.80;99.90
21149;DHT22;10732;51.472;6.466;2023-09-08T03:18:55;15.70;99.90
21149;DHT22;10732;51.472;6.466;2023-09-08T03:21:21;15.70;99.90
21149;DHT22;10732;51.472;6.466;2023-09-08T03:23:46;15.60;99.90
21149;DHT22;10732;51.472;6.466;2023-09-08T03:26:12;15.60;99.90
21149;DHT22;10732;51.472;6.466;2023-09-08T03:28:38;15.60;99.90
21149;DHT22;10732;51.472;6.466;2023-09-08T03:31:06;15.50;99.90
21149;DHT22;10732;51.472;6.466;2023-09-08T03:33:32;15.50;99.90
21149;DHT22;10732;51.472;6.466;2023-09-08T03:35:57;15.50;99.90
21149;DHT22;10732;51.472;6.466;2023-09-08T03:38:23;15.50;99.90
21149;DHT22;10732;51.472;6.466;2023-09-08T03:40:49;15.50;99.90
21149;DHT22;10732;51.472;6.466;2023-09-08T03:43:15;15.50;99.90
21149;DHT22;10732;51.472;6.466;2023-09-08T03:45:40;15.50;99.90
21149;DHT22;10732;51.472;6.466;2023-09-08T03:48:06;15.50;99.90
21149;DHT22;10732;51.472;6.466;2023-09-08T03:50:32;15.50;99.90
21149;DHT22;10732;51.472;6.466;2023-09-08T03:52:58;15.50;99.90
21149;DHT22;10732;51.472;6.466;2023-09-08T03:55:23;15.40;99.90
21149;DHT22;10732;51.472;6.466;2023-09-08T03:57:49;15.40;99.90
21149;DHT22;10732;51.472;6.466;2023-09-08T04:00:14;15.40;99.90
21149;DHT22;10732;51.472;6.466;2023-09-08T04:02:50;15.40;99.90
21149;DHT22;10732;51.472;6.466;2023-09-08T04:05:17;15.40;99.90
21149;DHT22;10732;51.472;6.466;2023-09-08T04:07:44;15.40;99.90
21149;DHT22;10732;51.472;6.466;2023-09-08T04:10:10;15.40;99.90
21149;DHT22;10732;51.472;6.466;2023-09-08T04:12:36;15.40;99.90
21149;DHT22;10732;51.472;6.466;2023-09-08T04:15:01;15.40;99.90
21149;DHT22;10732;51.472;6.466;2023-09-08T04:17:27;15.30;99.90
21149;DHT22;10732;51.472;6.466;2023-09-08T04:19:53;15.30;99.90
21149;DHT22;10732;51.472;6.466;2023-09-08T04:22:18;15.30;99.90
21149;DHT22;10732;51.472;6.466;2023-09-08T04:24:44;15.30;99.90
21149;DHT22;10732;51.472;6.466;2023-09-08T04:27:09;15.30;99.90
21149;DHT22;10732;51.472;6.466;2023-09-08T04:29:35;15.30;99.90
21149;DHT22;10732;51.472;6.466;2023-09-08T04:32:01;15.20;99.90
21149;DHT22;10732;51.472;6.466;2023-09-08T04:34:40;15.20;99.90
21149;DHT22;10732;51.472;6.466;2023-09-08T04:37:06;15.20;99.90
21149;DHT22;10732;51.472;6.466;2023-09-08T04:39:33;15.20;99.90
21149;DHT22;10732;51.472;6.466;2023-09-08T04:41:58;15.20;99.90
21149;DHT22;10732;51.472;6.466;2023-09-08T04:44:24;15.10;99.90
21149;DHT22;10732;51.472;6.466;2023-09-08T04:46:50;15.20;99.90
21149;DHT22;10732;51.472;6.466;2023-09-08T04:49:16;15.10;99.90
21149;DHT22;10732;51.472;6.466;2023-09-08T04:51:41;15.10;99.90
21149;DHT22;10732;51.472;6.466;2023-09-08T04:54:07;15.10;99.90
21149;DHT22;10732;51.472;6.466;2023-09-08T04:56:32;15.10;99.90
21149;DHT22;10732;51.472;6.466;2023-09-08T04:58:58;15.10;99.90
21149;DHT22;10732;51.472;6.466;2023-09-08T05:01:29;15.10;99.90
21149;DHT22;10732;51.472;6.466;2023-09-08T05:03:58;15.10;99.90
21149;DHT22;10732;51.472;6.466;2023-09-08T05:06:23;15.10;99.90
21149;DHT22;10732;51.472;6.466;2023-09-08T05:08:49;15.20;99.90
21149;DHT22;10732;51.472;6.466;2023-09-08T05:11:14;15.40;99.90
21149;DHT22;10732;51.472;6.466;2023-09-08T05:13:40;15.60;99.90
21149;DHT22;10732;51.472;6.466;2023-09-08T05:16:05;15.90;99.90
21149;DHT22;10732;51.472;6.466;2023-09-08T05:18:41;16.20;99.90
21149;DHT22;10732;51.472;6.466;2023-09-08T05:21:07;16.60;99.90
21149;DHT22;10732;51.472;6.466;2023-09-08T05:23:33;16.90;99.90
21149;DHT22;10732;51.472;6.466;2023-09-08T05:25:59;17.30;99.90
21149;DHT22;10732;51.472;6.466;2023-09-08T05:28:25;17.70;99.90
21149;DHT22;10732;51.472;6.466;2023-09-08T05:30:51;18.10;99.90
21149;DHT22;10732;51.472;6.466;2023-09-08T05:33:17;18.30;99.90
21149;DHT22;10732;51.472;6.466;2023-09-08T05:35:43;18.40;99.90
21149;DHT22;10732;51.472;6.466;2023-09-08T05:38:09;18.90;99.90
21149;DHT22;10732;51.472;6.466;2023-09-08T05:40:34;19.30;99.90
21149;DHT22;10732;51.472;6.466;2023-09-08T05:43:00;19.50;99.90
21149;DHT22;10732;51.472;6.466;2023-09-08T05:45:25;20.10;1.00
21149;DHT22;10732;51.472;6.466;2023-09-08T05:47:51;20.30;1.00
21149;DHT22;10732;51.472;6.466;2023-09-08T05:50:17;20.50;99.90
21149;DHT22;10732;51.472;6.466;2023-09-08T05:52:43;21.00;1.00
21149;DHT22;10732;51.472;6.466;2023-09-08T05:55:09;21.70;1.00
21149;DHT22;10732;51.472;6.466;2023-09-08T05:57:35;22.10;99.90
21149;DHT22;10732;51.472;6.466;2023-09-08T06:00:05;22.40;99.90
21149;DHT22;10732;51.472;6.466;2023-09-08T06:02:30;22.50;1.00
21149;DHT22;10732;51.472;6.466;2023-09-08T06:04:56;21.60;99.90
21149;DHT22;10732;51.472;6.466;2023-09-08T06:07:22;20.50;1.00
21149;DHT22;10732;51.472;6.466;2023-09-08T06:09:47;19.70;1.00
21149;DHT22;10732;51.472;6.466;2023-09-08T06:12:13;19.10;99.90
21149;DHT22;10732;51.472;6.466;2023-09-08T06:14:38;18.60;99.90
21149;DHT22;10732;51.472;6.466;2023-09-08T06:17:04;18.50;99.90
21149;DHT22;10732;51.472;6.466;2023-09-08T06:19:29;18.50;99.90
21149;DHT22;10732;51.472;6.466;2023-09-08T06:21:55;18.50;99.90
21149;DHT22;10732;51.472;6.466;2023-09-08T06:24:20;18.60;99.90
21149;DHT22;10732;51.472;6.466;2023-09-08T06:26:46;18.70;99.90
21149;DHT22;10732;51.472;6.466;2023-09-08T06:29:12;18.70;99.90
21149;DHT22;10732;51.472;6.466;2023-09-08T06:31:37;18.80;99.90
21149;DHT22;10732;51.472;6.466;2023-09-08T06:34:03;18.90;99.90
21149;DHT22;10732;51.472;6.466;2023-09-08T06:36:29;19.00;99.90
21149;DHT22;10732;51.472;6.466;2023-09-08T06:38:54;20.10;99.90
21149;DHT22;10732;51.472;6.466;2023-09-08T06:41:20;21.60;1.00
21149;DHT22;10732;51.472;6.466;2023-09-08T06:43:45;23.80;1.00
21149;DHT22;10732;51.472;6.466;2023-09-08T06:46:11;24.60;1.00
21149;DHT22;10732;51.472;6.466;2023-09-08T06:48:37;24.60;1.00
21149;DHT22;10732;51.472;6.466;2023-09-08T06:51:02;25.50;99.90
21149;DHT22;10732;51.472;6.466;2023-09-08T06:53:28;25.80;99.90
21149;DHT22;10732;51.472;6.466;2023-09-08T06:55:53;25.70;99.90
21149;DHT22;10732;51.472;6.466;2023-09-08T06:58:19;25.90;99.90
21149;DHT22;10732;51.472;6.466;2023-09-08T07:00:44;26.40;96.90
21149;DHT22;10732;51.472;6.466;2023-09-08T07:03:10;27.40;1.00
21149;DHT22;10732;51.472;6.466;2023-09-08T07:05:35;28.20;1.00
21149;DHT22;10732;51.472;6.466;2023-09-08T07:08:01;28.20;1.00
21149;DHT22;10732;51.472;6.466;2023-09-08T07:10:27;27.40;1.00
21149;DHT22;10732;51.472;6.466;2023-09-08T07:12:52;28.20;1.00
21149;DHT22;10732;51.472;6.466;2023-09-08T07:15:18;27.70;1.00
21149;DHT22;10732;51.472;6.466;2023-09-08T07:17:43;27.40;1.00
21149;DHT22;10732;51.472;6.466;2023-09-08T07:20:09;27.90;1.00
21149;DHT22;10732;51.472;6.466;2023-09-08T07:22:35;28.60;1.00
21149;DHT22;10732;51.472;6.466;2023-09-08T07:25:01;27.60;1.00
21149;DHT22;10732;51.472;6.466;2023-09-08T07:27:26;27.80;1.00
21149;DHT22;10732;51.472;6.466;2023-09-08T07:29:52;29.10;1.00
21149;DHT22;10732;51.472;6.466;2023-09-08T07:32:18;30.30;1.00
21149;DHT22;10732;51.472;6.466;2023-09-08T07:34:44;29.80;1.00
21149;DHT22;10732;51.472;6.466;2023-09-08T07:37:09;29.30;1.00
21149;DHT22;10732;51.472;6.466;2023-09-08T07:39:35;28.10;1.00
21149;DHT22;10732;51.472;6.466;2023-09-08T07:42:01;27.90;1.00
21149;DHT22;10732;51.472;6.466;2023-09-08T07:44:27;28.90;1.00
21149;DHT22;10732;51.472;6.466;2023-09-08T07:46:52;28.90;1.00
21149;DHT22;10732;51.472;6.466;2023-09-08T07:49:20;29.20;1.00
21149;DHT22;10732;51.472;6.466;2023-09-08T07:51:46;30.60;1.00
21149;DHT22;10732;51.472;6.466;2023-09-08T07:54:12;31.00;1.00
21149;DHT22;10732;51.472;6.466;2023-09-08T07:56:38;30.30;1.00
21149;DHT22;10732;51.472;6.466;2023-09-08T07:59:06;30.50;1.00
21149;DHT22;10732;51.472;6.466;2023-09-08T08:01:31;30.00;1.00
21149;DHT22;10732;51.472;6.466;2023-09-08T08:03:57;30.90;1.00
21149;DHT22;10732;51.472;6.466;2023-09-08T08:06:23;31.20;1.00
21149;DHT22;10732;51.472;6.466;2023-09-08T08:08:49;31.70;1.00
21149;DHT22;10732;51.472;6.466;2023-09-08T08:11:16;31.20;1.00
21149;DHT22;10732;51.472;6.466;2023-09-08T08:13:43;30.80;1.00
21149;DHT22;10732;51.472;6.466;2023-09-08T08:16:09;31.90;1.00
21149;DHT22;10732;51.472;6.466;2023-09-08T08:18:34;30.90;1.00
21149;DHT22;10732;51.472;6.466;2023-09-08T08:21:00;31.80;1.00
21149;DHT22;10732;51.472;6.466;2023-09-08T08:23:28;32.00;1.00
21149;DHT22;10732;51.472;6.466;2023-09-08T08:25:53;32.60;1.00
21149;DHT22;10732;51.472;6.466;2023-09-08T08:28:19;32.10;1.00
21149;DHT22;10732;51.472;6.466;2023-09-08T08:30:45;32.10;1.00
21149;DHT22;10732;51.472;6.466;2023-09-08T08:33:13;32.30;1.00
21149;DHT22;10732;51.472;6.466;2023-09-08T08:35:39;32.00;1.00
21149;DHT22;10732;51.472;6.466;2023-09-08T08:38:04;31.90;1.00
21149;DHT22;10732;51.472;6.466;2023-09-08T08:40:31;32.30;1.00
21149;DHT22;10732;51.472;6.466;2023-09-08T08:42:57;32.70;99.90
21149;DHT22;10732;51.472;6.466;2023-09-08T08:45:24;33.00;99.90
21149;DHT22;10732;51.472;6.466;2023-09-08T08:47:53;31.50;99.90
21149;DHT22;10732;51.472;6.466;2023-09-08T08:50:19;32.30;99.90
21149;DHT22;10732;51.472;6.466;2023-09-08T08:52:45;32.40;99.90
21149;DHT22;10732;51.472;6.466;2023-09-08T08:55:12;32.80;99.90
21149;DHT22;10732;51.472;6.466;2023-09-08T08:57:38;34.40;99.90
21149;DHT22;10732;51.472;6.466;2023-09-08T09:00:13;34.80;99.90
21149;DHT22;10732;51.472;6.466;2023-09-08T09:02:41;34.80;99.90
21149;DHT22;10732;51.472;6.466;2023-09-08T09:05:11;34.50;99.90
21149;DHT22;10732;51.472;6.466;2023-09-08T09:07:38;34.00;99.90
21149;DHT22;10732;51.472;6.466;2023-09-08T09:10:05;33.90;99.90
21149;DHT22;10732;51.472;6.466;2023-09-08T09:12:31;34.40;99.90
21149;DHT22;10732;51.472;6.466;2023-09-08T09:14:58;33.70;99.90
21149;DHT22;10732;51.472;6.466;2023-09-08T09:17:25;32.90;99.90
21149;DHT22;10732;51.472;6.466;2023-09-08T09:19:50;33.80;99.90
21149;DHT22;10732;51.472;6.466;2023-09-08T09:22:20;33.80;99.90
21149;DHT22;10732;51.472;6.466;2023-09-08T09:24:46;34.30;99.90
21149;DHT22;10732;51.472;6.466;2023-09-08T09:27:12;33.80;99.90
21149;DHT22;10732;51.472;6.466;2023-09-08T09:29:48;34.00;99.90
21149;DHT22;10732;51.472;6.466;2023-09-08T09:32:15;35.50;99.90
21149;DHT22;10732;51.472;6.466;2023-09-08T09:34:48;35.10;99.90
21149;DHT22;10732;51.472;6.466;2023-09-08T09:37:15;35.50;99.90
21149;DHT22;10732;51.472;6.466;2023-09-08T09:39:40;35.10;99.90
21149;DHT22;10732;51.472;6.466;2023-09-08T09:42:06;35.00;99.90
21149;DHT22;10732;51.472;6.466;2023-09-08T09:44:32;35.00;99.90
21149;DHT22;10732;51.472;6.466;2023-09-08T09:46:58;35.50;99.90
21149;DHT22;10732;51.472;6.466;2023-09-08T09:49:25;35.70;99.90
21149;DHT22;10732;51.472;6.466;2023-09-08T09:51:57;35.40;99.90
21149;DHT22;10732;51.472;6.466;2023-09-08T09:54:23;35.10;99.90
21149;DHT22;10732;51.472;6.466;2023-09-08T09:56:49;35.40;99.90
21149;DHT22;10732;51.472;6.466;2023-09-08T09:59:17;35.10;99.90
21149;DHT22;10732;51.472;6.466;2023-09-08T10:01:43;34.60;99.90
21149;DHT22;10732;51.472;6.466;2023-09-08T10:04:09;33.40;99.90
21149;DHT22;10732;51.472;6.466;2023-09-08T10:06:37;34.50;99.90
21149;DHT22;10732;51.472;6.466;2023-09-08T10:09:04;35.50;99.90
21149;DHT22;10732;51.472;6.466;2023-09-08T10:11:47;35.80;99.90
21149;DHT22;10732;51.472;6.466;2023-09-08T10:14:17;35.70;99.90
21149;DHT22;10732;51.472;6.466;2023-09-08T10:16:44;35.20;99.90
21149;DHT22;10732;51.472;6.466;2023-09-08T10:19:15;34.40;99.90
21149;DHT22;10732;51.472;6.466;2023-09-08T10:21:43;34.20;99.90
21149;DHT22;10732;51.472;6.466;2023-09-08T10:24:24;34.50;99.90
21149;DHT22;10732;51.472;6.466;2023-09-08T10:27:10;35.40;99.90
21149;DHT22;10732;51.472;6.466;2023-09-08T10:29:36;35.00;99.90
21149;DHT22;10732;51.472;6.466;2023-09-08T10:32:03;34.80;99.90
21149;DHT22;10732;51.472;6.466;2023-09-08T10:34:30;35.20;99.90
21149;DHT22;10732;51.472;6.466;2023-09-08T10:36:57;34.60;99.90
21149;DHT22;10732;51.472;6.466;2023-09-08T10:39:33;35.00;99.90
21149;DHT22;10732;51.472;6.466;2023-09-08T10:47:13;35.00;99.90
21149;DHT22;10732;51.472;6.466;2023-09-08T10:49:39;34.20;99.90
21149;DHT22;10732;51.472;6.466;2023-09-08T10:52:08;34.70;99.90
21149;DHT22;10732;51.472;6.466;2023-09-08T10:54:44;35.20;99.90
21149;DHT22;10732;51.472;6.466;2023-09-08T10:57:15;35.70;99.90
21149;DHT22;10732;51.472;6.466;2023-09-08T10:59:54;35.00;99.90
21149;DHT22;10732;51.472;6.466;2023-09-08T11:04:57;33.80;99.90
21149;DHT22;10732;51.472;6.466;2023-09-08T11:07:24;34.70;99.90
21149;DHT22;10732;51.472;6.466;2023-09-08T11:09:50;35.10;99.90
21149;DHT22;10732;51.472;6.466;2023-09-08T11:12:16;35.30;99.90
21149;DHT22;10732;51.472;6.466;2023-09-08T11:14:43;35.40;99.90
21149;DHT22;10732;51.472;6.466;2023-09-08T11:17:09;36.30;99.90
21149;DHT22;10732;51.472;6.466;2023-09-08T11:19:48;36.80;99.90
21149;DHT22;10732;51.472;6.466;2023-09-08T11:22:15;35.60;99.90
21149;DHT22;10732;51.472;6.466;2023-09-08T11:24:42;36.20;99.90
21149;DHT22;10732;51.472;6.466;2023-09-08T11:27:08;36.10;99.90
21149;DHT22;10732;51.472;6.466;2023-09-08T11:29:34;36.30;99.90
21149;DHT22;10732;51.472;6.466;2023-09-08T11:32:00;35.70;99.90
21149;DHT22;10732;51.472;6.466;2023-09-08T11:34:27;35.30;99.90
21149;DHT22;10732;51.472;6.466;2023-09-08T11:36:53;35.50;99.90
21149;DHT22;10732;51.472;6.466;2023-09-08T11:39:23;35.60;99.90
21149;DHT22;10732;51.472;6.466;2023-09-08T11:41:49;36.10;99.90
21149;DHT22;10732;51.472;6.466;2023-09-08T11:44:17;35.60;99.90
21149;DHT22;10732;51.472;6.466;2023-09-08T11:46:43;34.10;99.90
21149;DHT22;10732;51.472;6.466;2023-09-08T11:49:08;33.40;99.90
21149;DHT22;10732;51.472;6.466;2023-09-08T11:51:34;32.50;99.90
21149;DHT22;10732;51.472;6.466;2023-09-08T11:54:00;32.10;99.90
21149;DHT22;10732;51.472;6.466;2023-09-08T11:56:26;32.30;99.90
21149;DHT22;10732;51.472;6.466;2023-09-08T11:58:52;32.10;99.90
21149;DHT22;10732;51.472;6.466;2023-09-08T12:01:18;32.10;99.90
21149;DHT22;10732;51.472;6.466;2023-09-08T12:03:54;31.80;99.90
21149;DHT22;10732;51.472;6.466;2023-09-08T12:06:26;31.90;99.90
21149;DHT22;10732;51.472;6.466;2023-09-08T12:08:56;31.70;99.90
21149;DHT22;10732;51.472;6.466;2023-09-08T12:11:32;31.40;99.90
21149;DHT22;10732;51.472;6.466;2023-09-08T12:14:01;31.60;99.90
21149;DHT22;10732;51.472;6.466;2023-09-08T12:16:26;31.90;99.90
21149;DHT22;10732;51.472;6.466;2023-09-08T12:18:52;31.60;99.90
21149;DHT22;10732;51.472;6.466;2023-09-08T12:21:17;31.90;99.90
21149;DHT22;10732;51.472;6.466;2023-09-08T12:23:54;31.90;99.90
21149;DHT22;10732;51.472;6.466;2023-09-08T12:26:21;31.60;99.90
21149;DHT22;10732;51.472;6.466;2023-09-08T12:28:47;31.60;99.90
21149;DHT22;10732;51.472;6.466;2023-09-08T12:31:14;31.70;99.90
21149;DHT22;10732;51.472;6.466;2023-09-08T12:33:40;31.90;99.90
21149;DHT22;10732;51.472;6.466;2023-09-08T12:36:14;31.80;99.90
21149;DHT22;10732;51.472;6.466;2023-09-08T12:38:40;31.30;99.90
21149;DHT22;10732;51.472;6.466;2023-09-08T12:41:06;31.70;99.90
21149;DHT22;10732;51.472;6.466;2023-09-08T12:43:32;31.30;99.90
21149;DHT22;10732;51.472;6.466;2023-09-08T12:45:57;31.60;99.90
21149;DHT22;10732;51.472;6.466;2023-09-08T12:48:23;31.80;99.90
21149;DHT22;10732;51.472;6.466;2023-09-08T12:50:49;31.90;99.90
21149;DHT22;10732;51.472;6.466;2023-09-08T12:53:15;32.10;99.90
21149;DHT22;10732;51.472;6.466;2023-09-08T12:55:43;31.80;99.90
21149;DHT22;10732;51.472;6.466;2023-09-08T12:58:08;31.30;99.90
21149;DHT22;10732;51.472;6.466;2023-09-08T13:00:34;31.00;99.90
21149;DHT22;10732;51.472;6.466;2023-09-08T13:02:59;31.20;99.90
21149;DHT22;10732;51.472;6.466;2023-09-08T13:05:27;31.10;99.90
21149;DHT22;10732;51.472;6.466;2023-09-08T13:07:53;31.50;99.90
21149;DHT22;10732;51.472;6.466;2023-09-08T13:10:18;31.50;99.90
21149;DHT22;10732;51.472;6.466;2023-09-08T13:12:45;31.50;99.90
21149;DHT22;10732;51.472;6.466;2023-09-08T13:15:11;31.50;99.90
21149;DHT22;10732;51.472;6.466;2023-09-08T13:17:37;31.70;99.90
21149;DHT22;10732;51.472;6.466;2023-09-08T13:20:03;31.50;99.90
21149;DHT22;10732;51.472;6.466;2023-09-08T13:22:29;31.70;99.90
21149;DHT22;10732;51.472;6.466;2023-09-08T13:24:55;31.40;99.90
21149;DHT22;10732;51.472;6.466;2023-09-08T13:27:20;31.70;99.90
21149;DHT22;10732;51.472;6.466;2023-09-08T13:29:46;31.40;99.90
21149;DHT22;10732;51.472;6.466;2023-09-08T13:32:11;31.30;99.90
21149;DHT22;10732;51.472;6.466;2023-09-08T13:34:37;31.50;99.90
21149;DHT22;10732;51.472;6.466;2023-09-08T13:37:04;31.80;99.90
21149;DHT22;10732;51.472;6.466;2023-09-08T13:39:29;31.90;99.90
21149;DHT22;10732;51.472;6.466;2023-09-08T13:41:58;31.70;99.90
21149;DHT22;10732;51.472;6.466;2023-09-08T13:44:24;31.90;99.90
21149;DHT22;10732;51.472;6.466;2023-09-08T13:46:50;32.00;99.90
21149;DHT22;10732;51.472;6.466;2023-09-08T13:49:17;32.00;99.90
21149;DHT22;10732;51.472;6.466;2023-09-08T13:51:43;32.10;99.90
21149;DHT22;10732;51.472;6.466;2023-09-08T13:54:09;32.20;99.90
21149;DHT22;10732;51.472;6.466;2023-09-08T13:56:37;32.20;99.90
21149;DHT22;10732;51.472;6.466;2023-09-08T13:59:03;32.20;99.90
21149;DHT22;10732;51.472;6.466;2023-09-08T14:01:28;32.10;99.90
21149;DHT22;10732;51.472;6.466;2023-09-08T14:03:55;31.90;99.90
21149;DHT22;10732;51.472;6.466;2023-09-08T14:06:24;31.90;99.90
21149;DHT22;10732;51.472;6.466;2023-09-08T14:08:50;32.00;99.90
21149;DHT22;10732;51.472;6.466;2023-09-08T14:11:16;32.10;99.90
21149;DHT22;10732;51.472;6.466;2023-09-08T14:13:41;32.00;99.90
21149;DHT22;10732;51.472;6.466;2023-09-08T14:16:08;32.00;99.90
21149;DHT22;10732;51.472;6.466;2023-09-08T14:18:34;31.90;99.90
21149;DHT22;10732;51.472;6.466;2023-09-08T14:21:00;32.00;99.90
21149;DHT22;10732;51.472;6.466;2023-09-08T14:23:25;32.10;99.90
21149;DHT22;10732;51.472;6.466;2023-09-08T14:25:51;32.00;99.90
21149;DHT22;10732;51.472;6.466;2023-09-08T14:28:17;31.90;99.90
21149;DHT22;10732;51.472;6.466;2023-09-08T14:30:43;32.00;99.90
21149;DHT22;10732;51.472;6.466;2023-09-08T14:33:10;31.90;99.90
21149;DHT22;10732;51.472;6.466;2023-09-08T14:35:35;31.90;99.90
21149;DHT22;10732;51.472;6.466;2023-09-08T14:38:01;31.90;99.90
21149;DHT22;10732;51.472;6.466;2023-09-08T14:40:27;31.70;99.90
21149;DHT22;10732;51.472;6.466;2023-09-08T14:42:52;31.60;99.90
21149;DHT22;10732;51.472;6.466;2023-09-08T14:45:18;31.70;99.90
21149;DHT22;10732;51.472;6.466;2023-09-08T14:47:43;31.70;99.90
21149;DHT22;10732;51.472;6.466;2023-09-08T14:50:09;31.70;99.90
21149;DHT22;10732;51.472;6.466;2023-09-08T14:52:34;31.60;99.90
21149;DHT22;10732;51.472;6.466;2023-09-08T14:55:00;31.50;99.90
21149;DHT22;10732;51.472;6.466;2023-09-08T14:57:26;31.40;99.90
21149;DHT22;10732;51.472;6.466;2023-09-08T14:59:51;31.50;99.90
21149;DHT22;10732;51.472;6.466;2023-09-08T15:02:20;31.40;99.90
21149;DHT22;10732;51.472;6.466;2023-09-08T15:04:46;31.30;99.90
21149;DHT22;10732;51.472;6.466;2023-09-08T15:07:11;31.30;99.90
21149;DHT22;10732;51.472;6.466;2023-09-08T15:09:37;31.30;99.90
21149;DHT22;10732;51.472;6.466;2023-09-08T15:12:03;31.20;99.90
21149;DHT22;10732;51.472;6.466;2023-09-08T15:14:28;31.30;99.90
21149;DHT22;10732;51.472;6.466;2023-09-08T15:16:54;31.30;1.00
21149;DHT22;10732;51.472;6.466;2023-09-08T15:19:19;31.30;1.00
21149;DHT22;10732;51.472;6.466;2023-09-08T15:21:45;31.30;1.00
21149;DHT22;10732;51.472;6.466;2023-09-08T15:24:10;31.20;1.00
21149;DHT22;10732;51.472;6.466;2023-09-08T15:26:36;31.20;1.00
21149;DHT22;10732;51.472;6.466;2023-09-08T15:29:02;31.00;1.00
21149;DHT22;10732;51.472;6.466;2023-09-08T15:31:29;31.10;1.00
21149;DHT22;10732;51.472;6.466;2023-09-08T15:33:54;31.10;1.00
21149;DHT22;10732;51.472;6.466;2023-09-08T15:36:20;31.00;1.00